Time;durP1;ratioP1;P1;durP2;ratioP2;P2;SDS_P1;SDS_P2;PMS_P1;PMS_P2;Temp;Humidity;BMP_temperature;BMP_pressure;BME280_temperature;BME280_humidity;BME280_pressure;Samples;Min_cycle;Max_cycle;Signal;HPM_P1;HPM_P2
2022/05/29 00:01:48;;;;;;;8.63;3.73;;;7.00;99.90;;;;;;4406115;28;656992;-71
2022/05/29 00:04:36;;;;;;;7.37;3.93;;;7.10;99.90;;;;;;4408012;28;655479;-71
2022/05/29 00:07:23;;;;;;;10.27;4.27;;;7.10;99.90;;;;;;4432611;28;655220;-71
2022/05/29 00:10:11;;;;;;;6.73;3.57;;;7.00;99.90;;;;;;4401380;28;656966;-71
2022/05/29 00:12:58;;;;;;;7.03;3.90;;;6.90;99.90;;;;;;4424125;28;656137;-71
2022/05/29 00:15:45;;;;;;;14.10;4.70;;;6.60;99.90;;;;;;4408001;28;656468;-71
2022/05/29 00:18:36;;;;;;;10.70;4.00;;;6.70;99.90;;;;;;4422153;28;657133;-71
2022/05/29 00:21:23;;;;;;;11.73;4.03;;;6.50;99.90;;;;;;4403025;28;656601;-71
2022/05/29 00:24:10;;;;;;;11.60;3.97;;;6.40;99.90;;;;;;4405167;28;656674;-71
2022/05/29 00:26:57;;;;;;;8.73;3.77;;;6.20;99.90;;;;;;4428014;28;657026;-69
2022/05/29 00:29:45;;;;;;;12.77;3.77;;;6.00;99.90;;;;;;4420767;28;655494;-69
2022/05/29 00:32:33;;;;;;;7.60;4.07;;;5.90;99.90;;;;;;4427952;28;657787;-69
2022/05/29 00:35:21;;;;;;;8.20;3.40;;;5.70;99.90;;;;;;4420359;28;655686;-69
2022/05/29 00:38:09;;;;;;;8.47;3.37;;;5.70;99.90;;;;;;4426086;28;655078;-68
2022/05/29 00:40:58;;;;;;;8.23;3.80;;;5.60;99.90;;;;;;4408040;28;656088;-68
2022/05/29 00:43:46;;;;;;;7.00;4.27;;;5.50;99.90;;;;;;4404222;28;655897;-68
2022/05/29 00:46:34;;;;;;;8.97;3.80;;;5.50;99.90;;;;;;4412222;28;655825;-68
2022/05/29 00:49:23;;;;;;;8.90;4.03;;;5.40;99.90;;;;;;4402503;28;655998;-68
2022/05/29 00:52:14;;;;;;;8.90;4.20;;;5.30;99.90;;;;;;4411086;28;656426;-69
2022/05/29 00:55:03;;;;;;;8.03;3.83;;;5.10;99.90;;;;;;4404838;28;655573;-69
2022/05/29 00:57:54;;;;;;;9.17;4.10;;;5.00;99.90;;;;;;4414505;28;656331;-69
2022/05/29 01:00:41;;;;;;;13.37;4.40;;;5.00;99.90;;;;;;4413182;28;655308;-68
2022/05/29 01:03:28;;;;;;;9.13;4.47;;;4.90;99.90;;;;;;4433897;28;656308;-69
2022/05/29 01:06:15;;;;;;;11.30;4.60;;;4.90;99.90;;;;;;4408733;28;655636;-68
2022/05/29 01:09:05;;;;;;;8.93;4.23;;;4.80;99.90;;;;;;4432122;28;658260;-69
2022/05/29 01:12:00;;;;;;;9.23;4.30;;;4.70;99.90;;;;;;4403066;28;657349;-69
2022/05/29 01:14:51;;;;;;;9.33;4.40;;;4.50;99.90;;;;;;4406915;28;655808;-68
2022/05/29 01:17:42;;;;;;;12.03;4.07;;;4.40;99.90;;;;;;4404618;28;656061;-69
2022/05/29 01:20:54;;;;;;;14.10;4.00;;;4.30;99.90;;;;;;4423504;28;657912;-69
2022/05/29 01:24:01;;;;;;;10.33;4.90;;;4.20;99.90;;;;;;4386326;28;656759;-71
2022/05/29 01:27:12;;;;;;;10.07;4.77;;;4.20;99.90;;;;;;4408228;28;657035;-71
2022/05/29 01:30:04;;;;;;;14.57;5.07;;;4.20;99.90;;;;;;4403134;28;656133;-71
2022/05/29 01:32:59;;;;;;;12.40;4.60;;;4.20;99.90;;;;;;4380577;28;656867;-71
2022/05/29 01:35:47;;;;;;;11.38;5.15;;;4.00;99.90;;;;;;4378617;28;657738;-71
2022/05/29 01:38:36;;;;;;;12.37;5.10;;;3.80;99.90;;;;;;4422026;28;656968;-71
2022/05/29 01:41:25;;;;;;;9.97;4.97;;;3.80;99.90;;;;;;4401323;28;657004;-71
2022/05/29 01:44:14;;;;;;;11.70;5.50;;;3.70;99.90;;;;;;4409213;28;656415;-71
2022/05/29 01:47:05;;;;;;;9.50;5.17;;;3.70;99.90;;;;;;4407749;28;656960;-71
2022/05/29 01:49:54;;;;;;;8.82;4.90;;;3.60;99.90;;;;;;4402850;28;655740;-71
2022/05/29 01:52:44;;;;;;;10.23;4.47;;;3.60;99.90;;;;;;4409458;28;655249;-71
2022/05/29 01:55:34;;;;;;;9.97;4.60;;;3.60;99.90;;;;;;4409436;28;657215;-71
2022/05/29 01:58:25;;;;;;;9.00;4.37;;;3.50;99.90;;;;;;4409789;28;655987;-71
2022/05/29 02:01:12;;;;;;;17.70;5.50;;;3.40;99.90;;;;;;4406679;28;656863;-71
2022/05/29 02:04:02;;;;;;;10.10;5.33;;;3.40;99.90;;;;;;4426022;28;656772;-71
2022/05/29 02:09:58;;;;;;;10.40;5.10;;;3.40;99.90;;;;;;4401570;28;657130;-71
2022/05/29 02:12:46;;;;;;;15.63;4.97;;;3.40;99.90;;;;;;4413165;28;656310;-71
2022/05/29 02:15:39;;;;;;;7.83;4.40;;;3.30;99.90;;;;;;4428413;28;656425;-71
2022/05/29 02:18:30;;;;;;;15.43;6.07;;;3.20;99.90;;;;;;4384093;28;655534;-71
2022/05/29 02:21:21;;;;;;;16.17;6.27;;;3.20;99.90;;;;;;4409030;28;657504;-71
2022/05/29 02:24:10;;;;;;;13.53;6.03;;;3.20;99.90;;;;;;4404805;28;656635;-71
2022/05/29 02:27:02;;;;;;;12.23;6.40;;;3.20;99.90;;;;;;4407068;28;657383;-71
2022/05/29 02:29:49;;;;;;;10.23;5.03;;;3.20;99.90;;;;;;4406923;28;657153;-71
2022/05/29 02:32:39;;;;;;;11.53;5.07;;;3.10;99.90;;;;;;4411212;28;657222;-71
2022/05/29 02:35:29;;;;;;;12.67;5.83;;;3.00;99.90;;;;;;4411758;28;656438;-71
2022/05/29 02:38:21;;;;;;;16.27;6.80;;;3.00;99.90;;;;;;4409083;28;657343;-71
2022/05/29 02:41:10;;;;;;;14.00;7.30;;;3.00;99.90;;;;;;4404785;28;657217;-71
2022/05/29 02:43:59;;;;;;;15.20;7.10;;;2.90;99.90;;;;;;4411180;28;656508;-70
2022/05/29 02:46:50;;;;;;;14.00;6.73;;;2.90;99.90;;;;;;4409452;28;656924;-70
2022/05/29 02:49:39;;;;;;;13.77;6.83;;;2.80;99.90;;;;;;4406719;28;657088;-70
2022/05/29 02:52:26;;;;;;;15.17;7.43;;;2.70;99.90;;;;;;4406177;28;656519;-70
2022/05/29 02:55:16;;;;;;;15.37;7.80;;;2.80;99.90;;;;;;4426186;28;657463;-70
2022/05/29 02:58:06;;;;;;;27.33;7.87;;;2.70;99.90;;;;;;4407569;28;658017;-70
2022/05/29 03:01:11;;;;;;;15.33;7.10;;;2.70;99.90;;;;;;4409995;28;656275;-70
2022/05/29 03:04:06;;;;;;;12.70;7.60;;;2.70;99.90;;;;;;4406469;28;657231;-71
2022/05/29 03:06:55;;;;;;;16.30;9.23;;;2.70;99.90;;;;;;4405412;28;656949;-70
2022/05/29 03:09:46;;;;;;;15.93;8.17;;;2.80;99.90;;;;;;4410510;28;657303;-70
2022/05/29 03:12:44;;;;;;;18.50;9.07;;;2.80;99.90;;;;;;4406303;28;658122;-70
2022/05/29 03:15:36;;;;;;;18.03;8.87;;;2.90;99.90;;;;;;4407136;28;656854;-70
2022/05/29 03:18:34;;;;;;;18.77;8.37;;;2.90;99.90;;;;;;4405063;28;657050;-70
2022/05/29 03:21:24;;;;;;;15.73;9.57;;;2.80;99.90;;;;;;4382079;28;656736;-70
2022/05/29 03:24:17;;;;;;;18.47;10.23;;;2.80;99.90;;;;;;4405642;28;657360;-70
2022/05/29 03:27:06;;;;;;;17.73;10.43;;;2.90;99.90;;;;;;4406207;28;657600;-70
2022/05/29 03:29:57;;;;;;;19.10;10.20;;;3.00;99.90;;;;;;4404470;28;658698;-70
2022/05/29 03:32:44;;;;;;;18.20;9.30;;;3.10;99.90;;;;;;4400943;28;657898;-70
2022/05/29 03:35:34;;;;;;;20.70;10.97;;;3.20;99.90;;;;;;4410299;28;658438;-70
2022/05/29 03:38:21;;;;;;;23.27;10.17;;;3.10;99.90;;;;;;4387370;28;657892;-70
2022/05/29 03:41:12;;;;;;;20.80;8.83;;;3.20;99.90;;;;;;4408236;28;657898;-70
2022/05/29 03:43:59;;;;;;;25.53;9.53;;;3.30;99.90;;;;;;4402192;28;656314;-70
2022/05/29 03:46:48;;;;;;;19.93;9.83;;;3.40;99.90;;;;;;4408026;28;656319;-70
2022/05/29 03:49:35;;;;;;;20.35;10.13;;;3.40;99.90;;;;;;4400266;28;656977;-70
2022/05/29 03:52:23;;;;;;;20.27;9.37;;;3.50;99.90;;;;;;4425503;28;659122;-70
2022/05/29 03:55:10;;;;;;;21.20;10.33;;;3.60;99.90;;;;;;4414300;28;656465;-70
2022/05/29 03:57:57;;;;;;;19.53;10.30;;;3.80;99.90;;;;;;4425353;28;658910;-70
2022/05/29 04:00:45;;;;;;;20.90;10.83;;;3.90;99.90;;;;;;4420535;28;658678;-70
2022/05/29 04:03:34;;;;;;;24.03;9.90;;;4.10;99.90;;;;;;4428814;28;658958;-70
2022/05/29 04:06:21;;;;;;;27.07;11.93;;;4.20;99.90;;;;;;4404566;28;656497;-70
2022/05/29 04:12:15;;;;;;;22.43;11.63;;;4.50;99.90;;;;;;4391216;28;658029;-70
2022/05/29 04:15:03;;;;;;;23.80;12.00;;;4.80;99.90;;;;;;4400134;28;658906;-70
2022/05/29 04:17:50;;;;;;;24.20;12.20;;;5.00;99.90;;;;;;4407571;28;657813;-70
2022/05/29 04:20:39;;;;;;;27.13;12.33;;;5.10;99.90;;;;;;4426097;28;658551;-70
2022/05/29 04:23:26;;;;;;;24.47;13.97;;;5.50;99.90;;;;;;4409035;28;657651;-70
2022/05/29 04:26:14;;;;;;;28.53;13.53;;;5.70;99.90;;;;;;4425244;28;658136;-70
2022/05/29 04:29:01;;;;;;;29.73;14.17;;;6.00;99.90;;;;;;4403162;28;657217;-70
2022/05/29 04:34:54;;;;;;;20.43;11.83;;;6.60;99.90;;;;;;4403392;28;657670;-70
2022/05/29 04:37:43;;;;;;;22.47;11.63;;;6.90;99.90;;;;;;4408243;28;657517;-70
2022/05/29 04:40:31;;;;;;;21.07;10.23;;;7.10;99.90;;;;;;4408771;28;657272;-70
2022/05/29 04:43:18;;;;;;;17.60;8.73;;;7.30;99.90;;;;;;4428353;28;657950;-70
2022/05/29 04:46:05;;;;;;;15.80;8.60;;;7.50;99.90;;;;;;4412556;28;657512;-71
2022/05/29 04:48:52;;;;;;;19.90;8.87;;;7.70;99.90;;;;;;4430848;28;656507;-70
2022/05/29 04:51:39;;;;;;;20.20;9.07;;;7.80;99.90;;;;;;4432286;28;656643;-70
2022/05/29 04:54:28;;;;;;;23.90;10.83;;;7.90;99.90;;;;;;4407142;28;657101;-70
2022/05/29 04:57:17;;;;;;;28.42;11.93;;;8.10;99.90;;;;;;4405175;28;657728;-70
2022/05/29 05:00:07;;;;;;;25.73;12.03;;;8.20;99.90;;;;;;4423354;28;657241;-70
2022/05/29 05:02:54;;;;;;;21.83;12.20;;;8.30;99.90;;;;;;4407377;28;657538;-69
2022/05/29 05:05:42;;;;;;;23.37;10.97;;;8.40;77.90;;;;;;4408696;28;658736;-69
2022/05/29 05:08:29;;;;;;;21.45;10.75;;;8.60;1.00;;;;;;4426219;28;657035;-69
2022/05/29 05:11:18;;;;;;;19.53;9.77;;;8.80;99.90;;;;;;4401623;28;656239;-69
2022/05/29 05:14:05;;;;;;;21.07;9.83;;;8.80;99.90;;;;;;4407661;28;656962;-70
2022/05/29 05:16:53;;;;;;;16.83;7.40;;;8.90;1.00;;;;;;4422026;28;656128;-70
2022/05/29 05:19:40;;;;;;;18.57;9.27;;;9.00;99.90;;;;;;4408303;28;655503;-70
2022/05/29 05:22:27;;;;;;;24.37;10.40;;;9.10;1.00;;;;;;4423935;28;657039;-70
2022/05/29 05:25:15;;;;;;;20.43;9.60;;;9.20;99.90;;;;;;4413066;28;656645;-69
2022/05/29 05:28:04;;;;;;;14.90;6.87;;;9.30;1.00;;;;;;4416519;28;657605;-70
2022/05/29 05:30:51;;;;;;;17.73;6.47;;;9.30;99.90;;;;;;4401572;28;656439;-69
2022/05/29 05:33:39;;;;;;;13.80;6.30;;;9.50;99.90;;;;;;4414270;28;656444;-69
2022/05/29 05:36:26;;;;;;;13.77;6.27;;;9.50;99.90;;;;;;4396752;28;656487;-69
2022/05/29 05:39:13;;;;;;;12.40;5.20;;;9.60;99.90;;;;;;4414628;28;657171;-69
2022/05/29 05:42:00;;;;;;;11.53;4.70;;;9.70;99.90;;;;;;4396659;28;656719;-68
2022/05/29 05:44:49;;;;;;;8.23;4.33;;;9.70;1.00;;;;;;4422851;28;657301;-68
2022/05/29 05:47:36;;;;;;;12.70;4.73;;;9.80;1.00;;;;;;4404390;28;655660;-68
2022/05/29 05:50:23;;;;;;;8.73;3.40;;;9.90;1.00;;;;;;4417781;28;656778;-69
2022/05/29 05:53:10;;;;;;;10.67;4.47;;;9.90;1.00;;;;;;4404069;28;654727;-68
2022/05/29 05:55:57;;;;;;;13.67;4.73;;;9.90;99.90;;;;;;4422544;28;656458;-68
2022/05/29 05:58:45;;;;;;;14.87;5.30;;;9.90;99.90;;;;;;4418282;28;657108;-68
2022/05/29 06:01:34;;;;;;;11.50;5.43;;;10.00;1.00;;;;;;4422629;28;658166;-69
2022/05/29 06:04:21;;;;;;;12.53;4.80;;;10.10;1.00;;;;;;4404021;28;657429;-69
2022/05/29 06:07:09;;;;;;;12.53;4.90;;;10.20;99.90;;;;;;4416439;28;657022;-69
2022/05/29 06:09:56;;;;;;;16.43;5.17;;;10.50;99.90;;;;;;4400375;28;657798;-69
2022/05/29 06:12:43;;;;;;;12.23;3.55;;;10.40;99.90;;;;;;4423567;28;658525;-69
2022/05/29 06:15:30;;;;;;;13.03;5.10;;;10.40;99.90;;;;;;4409964;28;658430;-68
2022/05/29 06:18:19;;;;;;;18.23;5.07;;;10.60;1.00;;;;;;4426304;28;658306;-68
2022/05/29 06:21:06;;;;;;;16.50;4.20;;;10.70;1.00;;;;;;4405060;28;656884;-68
2022/05/29 06:23:53;;;;;;;9.27;3.83;;;10.90;1.00;;;;;;4430257;28;656506;-69
2022/05/29 06:26:41;;;;;;;12.10;4.47;;;10.80;1.00;;;;;;4409425;28;655553;-68
2022/05/29 06:29:28;;;;;;;8.60;2.83;;;11.00;68.80;;;;;;4433528;28;657750;-68
2022/05/29 06:32:16;;;;;;;13.73;3.50;;;11.10;99.90;;;;;;4408313;28;656591;-68
2022/05/29 06:35:05;;;;;;;12.23;3.70;;;10.80;1.00;;;;;;4426796;28;658222;-69
2022/05/29 06:37:52;;;;;;;10.07;3.30;;;11.10;1.00;;;;;;4407863;28;658556;-68
2022/05/29 06:40:42;;;;;;;13.97;2.60;;;11.50;31.60;;;;;;4428643;28;656386;-68
2022/05/29 06:43:29;;;;;;;11.67;2.47;;;11.50;99.90;;;;;;4428715;28;658096;-69
2022/05/29 06:46:16;;;;;;;7.87;2.00;;;11.50;1.00;;;;;;4408792;28;657802;-68
2022/05/29 06:49:04;;;;;;;8.67;2.77;;;11.30;1.00;;;;;;4430866;28;655860;-68
2022/05/29 06:51:52;;;;;;;8.03;2.57;;;11.20;1.00;;;;;;4407934;28;655575;-69
2022/05/29 06:54:40;;;;;;;9.30;2.17;;;11.60;99.90;;;;;;4433433;28;655493;-69
2022/05/29 07:09:52;;;;;;;8.47;2.17;;;11.90;1.00;;;;;;4372899;28;656405;-69
2022/05/29 07:12:39;;;;;;;10.27;2.10;;;12.10;1.00;;;;;;4429017;28;655187;-68
2022/05/29 07:15:26;;;;;;;8.13;2.23;;;12.30;14.90;;;;;;4408049;28;657266;-68
2022/05/29 07:18:13;;;;;;;5.80;2.40;;;12.30;1.00;;;;;;4428299;28;657353;-69
2022/05/29 07:21:02;;;;;;;5.33;2.27;;;12.10;1.00;;;;;;4411856;28;655909;-69
2022/05/29 07:23:49;;;;;;;9.30;2.30;;;12.20;19.90;;;;;;4432158;28;655886;-69
2022/05/29 07:26:37;;;;;;;5.77;2.50;;;12.70;1.00;;;;;;4402861;28;657108;-69
2022/05/29 07:29:25;;;;;;;6.50;1.93;;;12.80;1.00;;;;;;4430769;28;655389;-68
2022/05/29 07:32:12;;;;;;;7.93;2.40;;;12.30;1.00;;;;;;4402358;28;657252;-69
2022/05/29 07:34:59;;;;;;;8.97;1.97;;;12.90;91.20;;;;;;4428744;28;655656;-68
2022/05/29 07:37:46;;;;;;;10.13;2.97;;;12.80;1.00;;;;;;4408202;28;656660;-69
2022/05/29 07:40:33;;;;;;;12.97;2.10;;;12.60;1.00;;;;;;4426721;28;657263;-69
2022/05/29 07:43:22;;;;;;;7.43;2.20;;;12.20;99.90;;;;;;4406031;28;656751;-69
2022/05/29 07:46:09;;;;;;;7.83;2.70;;;12.80;99.90;;;;;;4421882;28;656844;-69
2022/05/29 07:48:56;;;;;;;9.23;2.67;;;13.60;1.00;;;;;;4404895;28;656206;-70
2022/05/29 07:51:43;;;;;;;8.83;1.93;;;13.30;99.90;;;;;;4426575;28;655635;-69
2022/05/29 07:54:31;;;;;;;7.40;1.20;;;13.60;99.90;;;;;;4405882;28;656529;-69
2022/05/29 07:57:18;;;;;;;10.27;2.30;;;13.70;99.90;;;;;;4426675;28;657249;-68
2022/05/29 08:00:09;;;;;;;8.20;2.00;;;13.00;99.90;;;;;;4394436;28;657601;-68
2022/05/29 08:02:56;;;;;;;7.10;2.00;;;13.10;99.90;;;;;;4399923;28;657210;-69
2022/05/29 08:05:43;;;;;;;7.03;1.80;;;13.90;99.90;;;;;;4428231;28;656729;-68
2022/05/29 08:08:32;;;;;;;6.50;1.90;;;14.00;99.90;;;;;;4406301;28;656648;-69
2022/05/29 08:11:19;;;;;;;6.30;1.63;;;13.50;99.90;;;;;;4427069;28;656154;-69
2022/05/29 08:14:06;;;;;;;9.00;1.50;;;13.90;99.90;;;;;;4399049;28;656537;-69
2022/05/29 08:16:55;;;;;;;10.35;1.80;;;14.00;99.90;;;;;;4418760;28;657476;-69
2022/05/29 08:19:42;;;;;;;7.10;1.73;;;14.20;99.90;;;;;;4398333;28;657551;-69
2022/05/29 08:22:29;;;;;;;5.50;1.63;;;14.40;99.90;;;;;;4414866;28;656860;-69
2022/05/29 08:31:26;;;;;;;7.93;1.63;;;15.50;99.90;;;;;;4396200;28;656617;-70
2022/05/29 08:34:14;;;;;;;6.67;1.87;;;15.40;99.90;;;;;;4419758;28;657147;-69
2022/05/29 08:37:02;;;;;;;4.97;1.63;;;15.30;99.90;;;;;;4403628;28;656787;-69
2022/05/29 08:39:49;;;;;;;5.37;1.20;;;14.30;99.90;;;;;;4426803;28;656576;-69
2022/05/29 08:42:37;;;;;;;3.43;1.40;;;14.10;99.90;;;;;;4405723;28;656418;-69
2022/05/29 08:45:24;;;;;;;8.93;1.90;;;14.60;99.90;;;;;;4420634;28;656848;-69
2022/05/29 08:48:11;;;;;;;5.43;1.57;;;14.70;99.90;;;;;;4402445;28;656489;-69
2022/05/29 08:51:08;;;;;;;8.90;1.30;;;15.20;99.90;;;;;;4426085;28;658371;-69
2022/05/29 08:54:04;;;;;;;4.13;1.30;;;15.60;99.90;;;;;;4375605;28;656744;-69
2022/05/29 08:56:56;;;;;;;4.40;1.43;;;15.10;99.90;;;;;;4402145;28;656306;-68
2022/05/29 08:59:47;;;;;;;2.10;1.30;;;15.30;99.90;;;;;;4396997;28;656851;-69
2022/05/29 09:02:49;;;;;;;4.47;1.47;;;14.60;99.90;;;;;;4396378;28;657584;-69
2022/05/29 09:05:38;;;;;;;4.83;1.30;;;13.60;99.90;;;;;;4375583;28;657151;-69
2022/05/29 09:08:29;;;;;;;3.97;1.40;;;13.60;99.90;;;;;;4396127;28;656714;-69
2022/05/29 09:11:20;;;;;;;3.93;1.17;;;14.90;99.90;;;;;;4399886;28;656552;-69
2022/05/29 09:14:15;;;;;;;4.90;1.40;;;15.00;97.00;;;;;;4395908;28;658215;-70
2022/05/29 09:17:06;;;;;;;4.13;1.30;;;16.40;99.90;;;;;;4403828;28;656809;-69
2022/05/29 09:19:54;;;;;;;3.63;1.27;;;17.10;95.30;;;;;;4406753;28;657104;-68
2022/05/29 09:22:44;;;;;;;5.03;1.13;;;15.50;60.10;;;;;;4406303;28;657351;-69
2022/05/29 09:25:33;;;;;;;3.80;1.43;;;15.40;85.00;;;;;;4405067;28;656742;-68
2022/05/29 09:28:24;;;;;;;5.27;1.20;;;15.00;72.40;;;;;;4397870;28;656831;-69
2022/05/29 09:31:14;;;;;;;6.60;1.30;;;15.40;91.40;;;;;;4401905;28;656882;-69
2022/05/29 09:34:02;;;;;;;4.20;1.67;;;15.60;99.90;;;;;;4404599;28;656583;-68
2022/05/29 09:36:54;;;;;;;3.50;1.13;;;15.40;99.90;;;;;;4425559;28;656212;-68
2022/05/29 09:39:43;;;;;;;8.83;1.50;;;15.30;99.90;;;;;;4381874;28;657916;-69
2022/05/29 09:42:35;;;;;;;3.23;1.03;;;16.60;99.90;;;;;;4404489;28;656564;-68
2022/05/29 09:45:28;;;;;;;6.00;1.60;;;16.30;75.40;;;;;;4403331;28;657823;-68
2022/05/29 09:51:34;;;;;;;4.53;1.60;;;16.70;77.00;;;;;;4392728;28;656202;-69
2022/05/29 09:54:25;;;;;;;5.40;2.03;;;17.40;89.80;;;;;;4391946;28;656966;-69
2022/05/29 09:57:14;;;;;;;5.57;1.50;;;17.50;64.40;;;;;;4392022;28;656802;-69
2022/05/29 10:00:06;;;;;;;4.93;1.40;;;18.10;99.80;;;;;;4401391;28;656854;-68
2022/05/29 10:02:54;;;;;;;6.13;1.60;;;16.60;26.70;;;;;;4406651;28;657586;-68
2022/05/29 10:05:41;;;;;;;2.73;1.37;;;17.20;93.20;;;;;;4410761;28;656533;-68
2022/05/29 10:08:31;;;;;;;4.07;1.20;;;16.80;36.00;;;;;;4430486;28;656405;-69
2022/05/29 10:11:20;;;;;;;3.80;1.30;;;17.70;47.20;;;;;;4411102;28;656684;-68
2022/05/29 10:14:20;;;;;;;6.83;1.50;;;16.80;24.40;;;;;;4407208;28;658389;-68
2022/05/29 10:17:13;;;;;;;5.47;1.80;;;16.50;29.70;;;;;;4386640;28;656690;-69
2022/05/29 10:20:00;;;;;;;6.33;1.33;;;17.10;81.30;;;;;;4399486;28;656416;-68
2022/05/29 10:22:47;;;;;;;5.27;1.40;;;16.20;22.30;;;;;;4434398;28;657084;-68
2022/05/29 10:25:35;;;;;;;7.37;1.60;;;15.90;22.90;;;;;;4429716;28;657548;-68
2022/05/29 10:28:25;;;;;;;4.70;1.30;;;16.90;71.30;;;;;;4406357;28;657439;-69
2022/05/29 10:31:14;;;;;;;3.87;1.10;;;17.00;28.20;;;;;;4407176;28;657613;-69
2022/05/29 10:34:05;;;;;;;3.67;1.27;;;16.90;29.80;;;;;;4414086;28;656414;-68
2022/05/29 10:36:53;;;;;;;4.50;1.47;;;16.50;18.70;;;;;;4424078;28;657616;-68
2022/05/29 10:39:40;;;;;;;3.20;1.37;;;16.80;18.40;;;;;;4435806;28;657149;-68
2022/05/29 10:42:40;;;;;;;3.50;1.10;;;15.90;10.40;;;;;;4447341;28;657737;-68
2022/05/29 10:45:28;;;;;;;7.30;1.20;;;16.20;12.70;;;;;;4396044;28;657704;-68
2022/05/29 10:48:32;;;;;;;1.77;0.90;;;17.20;16.20;;;;;;4420923;28;656496;-69
2022/05/29 10:51:23;;;;;;;3.43;1.30;;;18.50;23.10;;;;;;4435158;28;656886;-68
2022/05/29 10:54:24;;;;;;;3.43;1.20;;;18.80;11.50;;;;;;4427144;28;656118;-68
2022/05/29 10:57:27;;;;;;;4.17;1.43;;;17.90;1.30;;;;;;4427609;28;656241;-68
2022/05/29 11:00:19;;;;;;;5.90;1.17;;;18.80;11.10;;;;;;4424670;28;656312;-69
2022/05/29 11:03:33;;;;;;;5.70;1.20;;;18.80;1.00;;;;;;4428024;28;656854;-68
2022/05/29 11:06:53;;;;;;;3.50;1.30;;;18.70;1.00;;;;;;4393994;28;655750;-69
2022/05/29 11:09:51;;;;;;;5.93;1.40;;;18.60;1.00;;;;;;4371187;28;655704;-68
2022/05/29 11:12:51;;;;;;;6.43;1.30;;;18.80;24.00;;;;;;4390094;28;655962;-69
2022/05/29 11:15:43;;;;;;;5.53;1.37;;;20.10;14.50;;;;;;4387934;28;656841;-69
2022/05/29 11:18:39;;;;;;;7.47;1.77;;;19.80;1.00;;;;;;4375894;28;656594;-69
2022/05/29 11:21:31;;;;;;;3.50;1.40;;;18.70;1.50;;;;;;4368590;28;656143;-69
2022/05/29 11:24:36;;;;;;;8.13;1.40;;;17.80;1.00;;;;;;4414828;28;656068;-69
2022/05/29 11:27:32;;;;;;;3.03;1.30;;;17.60;5.90;;;;;;4424899;28;655847;-68
2022/05/29 11:30:21;;;;;;;1.17;0.90;;;16.80;1.00;;;;;;4424469;28;655896;-68
2022/05/29 11:33:23;;;;;;;6.00;1.27;;;17.40;1.00;;;;;;4424897;28;655889;-69
2022/05/29 11:36:18;;;;;;;6.03;1.40;;;18.70;8.00;;;;;;4418761;28;656389;-69
2022/05/29 11:39:29;;;;;;;4.93;1.23;;;19.50;7.20;;;;;;4404927;28;655877;-69
2022/05/29 11:42:18;;;;;;;5.90;1.20;;;19.20;1.00;;;;;;4383805;28;656228;-68
2022/05/29 11:45:07;;;;;;;3.87;1.20;;;18.10;1.00;;;;;;4415115;28;655980;-69
2022/05/29 11:51:08;;;;;;;3.53;1.10;;;17.90;1.00;;;;;;4391948;28;656327;-69
2022/05/29 11:53:59;;;;;;;3.90;1.37;;;18.10;1.00;;;;;;4414075;28;656041;-68
2022/05/29 11:56:50;;;;;;;3.90;1.20;;;18.50;1.00;;;;;;4428176;28;655565;-69
2022/05/29 11:59:45;;;;;;;4.77;1.30;;;17.90;1.00;;;;;;4423950;28;657693;-69
2022/05/29 12:02:33;;;;;;;4.87;1.33;;;18.30;1.00;;;;;;4400734;28;656553;-69
2022/05/29 12:05:27;;;;;;;4.27;1.27;;;18.00;1.00;;;;;;4427996;28;655596;-68
2022/05/29 12:08:16;;;;;;;2.80;1.10;;;17.70;1.00;;;;;;4415373;28;655680;-68
2022/05/29 12:11:23;;;;;;;3.87;1.43;;;17.90;1.00;;;;;;4423725;28;656533;-69
2022/05/29 12:14:13;;;;;;;3.07;1.10;;;18.20;1.00;;;;;;4407518;28;655426;-69
2022/05/29 12:17:06;;;;;;;2.47;1.27;;;18.40;1.00;;;;;;4419794;28;656658;-69
2022/05/29 12:19:55;;;;;;;3.40;1.03;;;18.20;1.00;;;;;;4400005;28;656711;-69
2022/05/29 12:22:45;;;;;;;3.47;1.00;;;18.30;1.00;;;;;;4401766;28;656118;-68
2022/05/29 12:25:34;;;;;;;4.83;1.20;;;18.40;1.00;;;;;;4386639;28;655800;-68
2022/05/29 12:28:25;;;;;;;1.80;1.10;;;17.80;1.00;;;;;;4394832;28;656151;-68
2022/05/29 12:31:17;;;;;;;13.27;5.60;;;16.90;1.00;;;;;;4401433;28;656820;-68
2022/05/29 12:34:04;;;;;;;20.30;8.33;;;16.50;1.00;;;;;;4397351;28;656513;-67
2022/05/29 12:37:15;;;;;;;403.73;227.07;;;16.50;1.00;;;;;;4397256;28;657213;-67
2022/05/29 12:40:22;;;;;;;121.67;53.03;;;16.40;1.00;;;;;;4365077;28;660041;-67
2022/05/29 12:43:33;;;;;;;32.33;16.20;;;16.50;1.00;;;;;;4389570;28;658636;-67
2022/05/29 12:46:33;;;;;;;8.50;1.97;;;16.70;1.00;;;;;;4376406;28;657563;-66
2022/05/29 12:49:47;;;;;;;6.90;2.33;;;16.90;1.00;;;;;;4374948;28;655877;-66
2022/05/29 12:52:40;;;;;;;13.60;1.63;;;16.50;1.00;;;;;;4390750;28;655334;-67
2022/05/29 12:55:47;;;;;;;4.40;1.83;;;16.80;1.00;;;;;;4368493;28;656917;-66
2022/05/29 12:58:40;;;;;;;4.93;2.00;;;17.40;1.00;;;;;;4394526;28;654829;-67
2022/05/29 13:01:38;;;;;;;23.47;16.27;;;17.50;1.00;;;;;;4371993;28;656084;-67
2022/05/29 13:04:48;;;;;;;8.10;4.43;;;18.40;1.00;;;;;;4394283;28;657387;-67
2022/05/29 13:07:47;;;;;;;4.07;1.97;;;18.10;1.00;;;;;;4374978;28;656025;-67
2022/05/29 13:10:35;;;;;;;5.80;2.17;;;17.80;1.00;;;;;;4392499;28;655431;-67
2022/05/29 13:13:23;;;;;;;4.67;1.80;;;18.40;1.00;;;;;;4402298;28;656922;-67
2022/05/29 13:16:20;;;;;;;26.07;12.57;;;17.50;1.00;;;;;;4406514;28;655504;-67
2022/05/29 13:19:18;;;;;;;6.23;2.40;;;17.40;1.00;;;;;;4403187;28;657250;-67
2022/05/29 13:22:06;;;;;;;7.47;2.57;;;17.50;1.00;;;;;;4379378;28;656007;-67
2022/05/29 13:25:01;;;;;;;7.97;2.50;;;17.30;1.00;;;;;;4430956;28;656540;-67
2022/05/29 13:27:48;;;;;;;9.90;3.47;;;17.90;1.00;;;;;;4407282;28;656493;-67
2022/05/29 13:31:04;;;;;;;20.20;9.17;;;17.60;1.00;;;;;;4406617;28;655967;-67
2022/05/29 13:33:58;;;;;;;46.77;26.17;;;17.20;1.00;;;;;;4384435;28;656554;-67
2022/05/29 13:37:10;;;;;;;5.17;2.07;;;17.20;1.00;;;;;;4383134;28;658140;-66
2022/05/29 13:40:00;;;;;;;12.63;4.07;;;17.70;1.00;;;;;;4409195;28;655336;-67
2022/05/29 13:42:49;;;;;;;4.90;2.20;;;18.60;1.70;;;;;;4402897;28;657573;-67
2022/05/29 13:45:56;;;;;;;9.33;3.20;;;18.40;1.00;;;;;;4404504;28;655876;-67
2022/05/29 13:49:09;;;;;;;11.07;5.43;;;19.00;1.00;;;;;;4400796;28;655685;-67
2022/05/29 13:51:56;;;;;;;26.47;14.20;;;19.80;1.00;;;;;;4408379;28;656569;-66
2022/05/29 13:54:45;;;;;;;12.63;2.63;;;19.70;1.00;;;;;;4424507;28;658318;-67
2022/05/29 14:04:03;;;;;;;345.67;208.70;;;19.60;1.00;;;;;;4379996;28;658461;-67
2022/05/29 14:07:21;;;;;;;57.33;36.43;;;18.90;1.00;;;;;;4383769;28;660042;-67
2022/05/29 14:10:31;;;;;;;4.33;2.10;;;18.70;1.00;;;;;;4398443;28;658837;-67
2022/05/29 14:13:39;;;;;;;27.40;14.83;;;18.30;1.00;;;;;;4406762;28;656244;-66
2022/05/29 14:16:41;;;;;;;6.90;2.33;;;18.30;1.00;;;;;;4386869;28;657970;-67
2022/05/29 14:19:42;;;;;;;4.53;1.80;;;18.20;1.00;;;;;;4399935;28;656359;-67
2022/05/29 14:25:50;;;;;;;8.20;2.30;;;18.20;1.00;;;;;;4406999;28;655431;-67
2022/05/29 14:28:47;;;;;;;8.60;2.27;;;18.20;1.00;;;;;;4382395;28;655866;-66
2022/05/29 14:31:47;;;;;;;7.37;2.20;;;18.60;1.00;;;;;;4406081;28;656179;-67
2022/05/29 14:34:58;;;;;;;4.47;1.73;;;18.50;1.00;;;;;;4407946;28;656079;-67
2022/05/29 14:37:55;;;;;;;8.27;2.10;;;18.00;1.00;;;;;;4386050;28;655309;-67
2022/05/29 14:40:48;;;;;;;4.43;1.70;;;18.30;1.00;;;;;;4381944;28;656896;-66
2022/05/29 14:43:39;;;;;;;5.30;1.90;;;18.50;1.00;;;;;;4407524;28;655468;-66
2022/05/29 14:46:32;;;;;;;6.60;2.03;;;18.10;1.00;;;;;;4406379;28;655726;-66
2022/05/29 14:49:21;;;;;;;6.47;2.23;;;18.10;1.00;;;;;;4405076;28;656481;-67
2022/05/29 14:52:11;;;;;;;13.60;3.23;;;17.90;1.00;;;;;;4406676;28;656370;-67
2022/05/29 14:55:00;;;;;;;4.70;2.23;;;18.00;1.00;;;;;;4404366;28;657226;-66
2022/05/29 14:57:51;;;;;;;3.50;1.60;;;18.30;1.00;;;;;;4406983;28;655769;-67
2022/05/29 15:00:40;;;;;;;6.27;1.70;;;18.00;1.00;;;;;;4404141;28;656136;-67
2022/05/29 15:03:29;;;;;;;5.17;2.23;;;17.60;1.00;;;;;;4403998;28;656976;-67
2022/05/29 15:06:20;;;;;;;5.13;1.70;;;17.20;1.00;;;;;;4409841;28;655986;-67
2022/05/29 15:12:21;;;;;;;4.23;2.07;;;17.40;1.00;;;;;;4382484;28;655857;-66
2022/05/29 15:15:19;;;;;;;9.17;2.00;;;17.10;1.00;;;;;;4406146;28;655956;-66
2022/05/29 15:18:09;;;;;;;10.03;2.53;;;17.40;1.00;;;;;;4410484;28;655777;-67
2022/05/29 15:24:13;;;;;;;5.67;2.37;;;17.60;1.00;;;;;;4402855;28;656441;-67
2022/05/29 15:27:04;;;;;;;5.80;2.00;;;17.40;1.00;;;;;;4389978;28;655675;-68
2022/05/29 15:29:52;;;;;;;6.03;2.00;;;17.60;1.00;;;;;;4410989;28;655713;-67
2022/05/29 15:32:40;;;;;;;4.47;1.70;;;17.80;1.00;;;;;;4428204;28;656121;-67